createdAt,value
2023-01-01T00:01:59.193Z,122.73
2023-01-01T00:04:27.827Z,110.13
2023-01-01T00:06:57.218Z,95.07
2023-01-01T00:09:42.973Z,98.67
2023-01-01T00:12:11.063Z,105.93
2023-01-01T00:14:42.766Z,82.80
2023-01-01T00:17:10.975Z,79.37
2023-01-01T00:19:39.298Z,59.00
2023-01-01T00:22:35.274Z,56.60
2023-01-01T00:24:56.689Z,58.53
2023-01-01T00:27:24.716Z,50.67
2023-01-01T00:29:52.801Z,46.70
2023-01-01T00:32:22.839Z,41.60
2023-01-01T00:34:51.373Z,39.00
2023-01-01T00:37:20.785Z,43.30
2023-01-01T00:39:49.446Z,41.40
2023-01-01T00:42:17.564Z,46.57
2023-01-01T00:44:45.596Z,47.43
2023-01-01T00:47:13.748Z,36.90
2023-01-01T00:49:41.774Z,38.87
2023-01-01T00:52:09.903Z,39.07
2023-01-01T00:54:39.281Z,32.37
2023-01-01T00:57:07.327Z,34.40
2023-01-01T00:59:35.415Z,33.27
2023-01-01T01:02:03.810Z,33.33
2023-01-01T01:04:31.932Z,37.37
2023-01-01T01:07:00.016Z,35.17
2023-01-01T01:09:28.101Z,28.83
2023-01-01T01:12:18.160Z,26.90
2023-01-01T01:14:45.457Z,23.53
2023-01-01T01:17:13.613Z,22.50
2023-01-01T01:19:41.643Z,27.77
2023-01-01T01:22:09.701Z,24.10
2023-01-01T01:24:37.735Z,28.73
2023-01-01T01:27:07.252Z,21.73
2023-01-01T01:29:35.296Z,19.90
2023-01-01T01:32:03.315Z,20.10
2023-01-01T01:34:31.358Z,20.00
2023-01-01T01:36:59.439Z,21.23
2023-01-01T01:39:27.477Z,16.97
2023-01-01T01:41:55.520Z,19.13
2023-01-01T01:44:52.003Z,22.77
2023-01-01T01:47:24.757Z,17.87
2023-01-01T01:49:58.237Z,16.13
2023-01-01T01:52:28.406Z,19.80
2023-01-01T01:54:57.027Z,14.63
2023-01-01T01:57:25.631Z,17.57
2023-01-01T01:59:57.854Z,18.57
2023-01-01T02:02:33.504Z,15.27
2023-01-01T02:05:02.301Z,14.70
2023-01-01T02:07:32.663Z,13.17
2023-01-01T02:10:02.302Z,13.10
2023-01-01T02:12:30.515Z,18.77
2023-01-01T02:15:00.253Z,14.50
2023-01-01T02:17:38.774Z,14.83
2023-01-01T02:20:32.391Z,13.70
2023-01-01T02:23:32.127Z,14.20
2023-01-01T02:26:18.529Z,13.17
2023-01-01T02:28:59.418Z,10.50
2023-01-01T02:31:30.531Z,17.70
2023-01-01T02:34:05.410Z,9.23
2023-01-01T02:36:36.084Z,12.43
2023-01-01T02:39:06.655Z,12.60
2023-01-01T02:41:40.583Z,9.73
2023-01-01T02:44:11.695Z,8.50
2023-01-01T02:46:39.782Z,8.80
2023-01-01T02:49:10.665Z,9.07
2023-01-01T02:51:51.705Z,8.00
2023-01-01T02:54:29.667Z,11.10
2023-01-01T02:57:04.176Z,10.63
2023-01-01T03:00:08.778Z,9.37
2023-01-01T03:02:50.495Z,9.67
2023-01-01T03:05:26.059Z,7.73
2023-01-01T03:08:07.843Z,7.43
2023-01-01T03:10:45.059Z,7.43
2023-01-01T03:13:22.318Z,6.67
2023-01-01T03:16:00.810Z,7.73
2023-01-01T03:18:34.826Z,8.27
2023-01-01T03:21:05.907Z,8.37
2023-01-01T03:23:38.375Z,7.60
2023-01-01T03:26:10.267Z,11.77
2023-01-01T03:28:45.072Z,7.33
2023-01-01T03:31:18.848Z,9.80
2023-01-01T03:33:50.184Z,8.03
2023-01-01T03:36:22.827Z,11.40
2023-01-01T03:38:53.420Z,8.73
2023-01-01T03:41:27.179Z,8.20
2023-01-01T03:44:02.329Z,11.20
2023-01-01T03:46:35.811Z,13.77
2023-01-01T03:49:05.658Z,16.63
2023-01-01T03:51:55.673Z,12.20
2023-01-01T03:54:31.908Z,11.50
2023-01-01T03:57:06.918Z,8.03
2023-01-01T03:59:41.501Z,10.17
2023-01-01T04:02:14.924Z,10.00
2023-01-01T04:04:43.685Z,15.50
2023-01-01T04:07:15.865Z,10.13
2023-01-01T04:09:50.865Z,10.90
2023-01-01T04:12:20.167Z,9.97
2023-01-01T04:14:48.218Z,12.70
2023-01-01T04:17:17.589Z,10.07
2023-01-01T04:19:51.526Z,13.40
2023-01-01T04:22:23.312Z,11.23
2023-01-01T04:24:51.552Z,9.43
2023-01-01T04:27:19.602Z,13.30
2023-01-01T04:29:47.651Z,13.47
2023-01-01T04:32:16.981Z,11.97
2023-01-01T04:34:45.069Z,11.40
2023-01-01T04:37:13.750Z,8.70
2023-01-01T04:39:41.955Z,11.30
2023-01-01T04:42:10.474Z,8.83
2023-01-01T04:44:38.573Z,8.80
2023-01-01T04:47:06.701Z,8.73
2023-01-01T04:49:36.047Z,7.37
2023-01-01T04:52:04.213Z,11.00
2023-01-01T04:54:32.295Z,7.33
2023-01-01T04:57:00.354Z,13.90
2023-01-01T04:59:29.926Z,7.87
2023-01-01T05:01:58.185Z,6.67
2023-01-01T05:04:26.350Z,13.70
2023-01-01T05:06:55.821Z,10.17
2023-01-01T05:09:23.875Z,9.77
2023-01-01T05:11:51.930Z,10.73
2023-01-01T05:14:19.960Z,9.63
2023-01-01T05:16:48.023Z,13.40
2023-01-01T05:19:16.054Z,13.10
2023-01-01T05:21:45.653Z,11.93
2023-01-01T05:24:15.866Z,15.00
2023-01-01T05:26:45.473Z,13.20
2023-01-01T05:29:16.807Z,16.23
2023-01-01T05:31:46.031Z,14.27
2023-01-01T05:34:15.080Z,11.50
2023-01-01T05:36:43.147Z,12.57
2023-01-01T05:39:14.422Z,11.10
2023-01-01T05:41:42.763Z,12.20
2023-01-01T05:44:11.615Z,14.27
2023-01-01T05:46:40.169Z,13.77
2023-01-01T05:49:12.051Z,10.60
2023-01-01T05:54:07.419Z,13.17
2023-01-01T05:56:37.071Z,15.10
2023-01-01T05:59:05.183Z,12.77
2023-01-01T06:01:38.803Z,11.73
2023-01-01T06:04:09.820Z,12.07
2023-01-01T06:06:37.917Z,11.80
2023-01-01T06:09:07.149Z,14.30
2023-01-01T06:11:36.509Z,13.10
2023-01-01T06:14:04.575Z,16.97
2023-01-01T06:16:33.130Z,12.73
2023-01-01T06:19:01.218Z,18.77
2023-01-01T06:21:30.425Z,19.80
2023-01-01T06:24:00.456Z,17.23
2023-01-01T06:26:30.520Z,17.80
2023-01-01T06:29:00.604Z,17.47
2023-01-01T06:31:32.913Z,16.37
2023-01-01T06:34:03.672Z,23.50
2023-01-01T06:36:31.694Z,20.47
2023-01-01T06:39:00.329Z,19.27
2023-01-01T06:41:30.676Z,23.10
2023-01-01T06:44:01.888Z,19.47
2023-01-01T06:46:32.152Z,16.17
2023-01-01T06:49:02.138Z,14.50
2023-01-01T06:51:31.780Z,16.50
2023-01-01T06:54:01.044Z,14.90
2023-01-01T06:56:29.556Z,16.30
2023-01-01T06:58:57.957Z,15.60
2023-01-01T07:01:29.642Z,17.33
2023-01-01T07:03:59.115Z,16.93
2023-01-01T07:06:28.537Z,18.80
2023-01-01T07:08:56.597Z,18.30
2023-01-01T07:11:24.922Z,11.90
2023-01-01T07:13:52.971Z,14.00
2023-01-01T07:16:21.663Z,10.07
2023-01-01T07:18:51.503Z,10.77
2023-01-01T07:21:29.525Z,6.90
2023-01-01T07:23:59.211Z,8.70
2023-01-01T07:26:28.359Z,8.00
2023-01-01T07:28:59.614Z,5.63
2023-01-01T07:31:34.345Z,8.53
2023-01-01T07:34:03.757Z,4.17
2023-01-01T07:36:31.851Z,6.40
2023-01-01T07:38:59.884Z,4.37
2023-01-01T07:41:27.893Z,8.03
2023-01-01T07:43:55.924Z,4.33
2023-01-01T07:46:24.082Z,5.23
2023-01-01T07:48:52.167Z,6.20
2023-01-01T07:51:21.505Z,6.23
2023-01-01T07:53:49.568Z,6.10
2023-01-01T07:56:17.622Z,5.17
2023-01-01T07:58:45.597Z,8.27
2023-01-01T08:01:14.595Z,3.60
2023-01-01T08:03:42.880Z,7.40
2023-01-01T08:06:12.902Z,2.50
2023-01-01T08:08:42.612Z,7.97
2023-01-01T08:11:10.800Z,5.03
2023-01-01T08:13:38.848Z,7.10
2023-01-01T08:16:07.488Z,5.50
2023-01-01T08:18:35.574Z,4.80
2023-01-01T08:21:03.622Z,5.10
2023-01-01T08:23:31.661Z,5.03
2023-01-01T08:26:02.120Z,5.47
2023-01-01T08:28:31.326Z,5.00
2023-01-01T08:31:00.241Z,7.30
2023-01-01T08:33:30.577Z,4.10
2023-01-01T08:35:58.779Z,4.63
2023-01-01T08:38:27.337Z,9.90
2023-01-01T08:40:55.389Z,7.37
2023-01-01T08:43:27.117Z,5.23
2023-01-01T08:45:55.185Z,4.50
2023-01-01T08:48:30.360Z,6.40
2023-01-01T08:51:00.915Z,4.90
2023-01-01T08:53:29.529Z,3.73
2023-01-01T08:55:58.621Z,3.20
2023-01-01T08:58:28.380Z,3.57
2023-01-01T09:00:56.711Z,6.10
2023-01-01T09:03:24.934Z,4.63
2023-01-01T09:05:54.386Z,4.10
2023-01-01T09:08:23.960Z,7.20
2023-01-01T09:10:52.415Z,5.63
2023-01-01T09:13:22.658Z,4.17
2023-01-01T09:15:52.265Z,2.77
2023-01-01T09:18:20.393Z,2.47
2023-01-01T09:20:48.537Z,3.40
2023-01-01T09:23:16.741Z,5.60
2023-01-01T09:25:44.810Z,5.77
2023-01-01T09:28:14.287Z,3.73
2023-01-01T09:30:42.338Z,5.07
2023-01-01T09:33:11.857Z,5.00
2023-01-01T09:35:44.314Z,3.30
2023-01-01T09:38:12.310Z,6.27
2023-01-01T09:40:51.542Z,3.50
2023-01-01T09:43:31.260Z,6.43
2023-01-01T09:46:02.247Z,3.43
2023-01-01T09:48:32.812Z,2.03
2023-01-01T09:51:04.323Z,4.80
2023-01-01T09:53:35.734Z,3.33
2023-01-01T09:56:06.224Z,3.13
2023-01-01T09:58:36.922Z,5.70
2023-01-01T10:01:11.286Z,2.30
2023-01-01T10:03:48.294Z,2.00
2023-01-01T10:06:25.831Z,3.80
2023-01-01T10:09:04.645Z,1.67
2023-01-01T10:11:43.446Z,8.93
2023-01-01T10:14:21.513Z,3.47
2023-01-01T10:16:55.368Z,3.90
2023-01-01T10:19:31.596Z,5.20
2023-01-01T10:22:04.507Z,4.97
2023-01-01T10:24:46.672Z,8.43
2023-01-01T10:27:27.138Z,3.43
2023-01-01T10:30:01.338Z,3.40
2023-01-01T10:32:34.148Z,6.10
2023-01-01T10:35:05.028Z,4.20
2023-01-01T10:37:38.677Z,3.97
2023-01-01T10:40:15.391Z,5.00
2023-01-01T10:42:43.410Z,4.13
2023-01-01T10:45:15.187Z,6.40
2023-01-01T10:48:13.776Z,5.33
2023-01-01T10:50:46.843Z,6.95
2023-01-01T10:53:24.844Z,8.25
2023-01-01T10:56:00.569Z,4.17
2023-01-01T10:58:36.748Z,4.70
2023-01-01T11:01:07.128Z,3.13
2023-01-01T11:03:35.908Z,3.57
2023-01-01T11:06:19.066Z,2.50
2023-01-01T11:08:50.818Z,12.67
2023-01-01T11:11:26.461Z,4.63
2023-01-01T11:13:57.420Z,3.57
2023-01-01T11:16:26.532Z,3.30
2023-01-01T11:19:03.153Z,7.23
2023-01-01T11:21:32.723Z,6.77
2023-01-01T11:24:21.580Z,3.43
2023-01-01T11:26:55.146Z,3.40
2023-01-01T11:29:28.880Z,2.53
2023-01-01T11:32:00.616Z,4.33
2023-01-01T11:34:35.478Z,5.40
2023-01-01T11:37:20.891Z,5.97
2023-01-01T11:39:52.235Z,3.40
2023-01-01T11:42:22.226Z,2.63
2023-01-01T11:44:53.831Z,4.77
2023-01-01T11:47:26.378Z,2.10
2023-01-01T11:49:57.011Z,5.73
2023-01-01T11:52:36.245Z,6.07
2023-01-01T11:55:15.797Z,3.40
2023-01-01T11:57:53.533Z,4.30
2023-01-01T12:00:21.649Z,4.07
2023-01-01T12:02:55.308Z,9.10
2023-01-01T12:05:26.721Z,2.70
2023-01-01T12:07:59.060Z,4.43
2023-01-01T12:10:31.296Z,2.90
2023-01-01T12:13:04.540Z,9.30
2023-01-01T12:15:37.753Z,6.87
2023-01-01T12:18:14.272Z,7.30
2023-01-01T12:20:46.729Z,6.97
2023-01-01T12:23:17.934Z,3.67
2023-01-01T12:25:50.776Z,4.20
2023-01-01T12:28:28.619Z,2.73
2023-01-01T12:31:04.352Z,8.77
2023-01-01T12:33:41.719Z,6.77
2023-01-01T12:36:21.475Z,5.53
2023-01-01T12:39:23.201Z,2.70
2023-01-01T12:42:01.417Z,2.40
2023-01-01T12:44:41.220Z,5.70
2023-01-01T12:47:17.916Z,3.40
2023-01-01T12:49:59.884Z,7.67
2023-01-01T12:52:45.084Z,2.87
2023-01-01T12:55:36.290Z,5.50
2023-01-01T12:58:11.787Z,5.80
2023-01-01T13:00:42.973Z,3.53
2023-01-01T13:03:19.454Z,10.90
2023-01-01T13:05:51.374Z,4.73
2023-01-01T13:08:19.378Z,4.37
2023-01-01T13:10:50.898Z,6.87
2023-01-01T13:13:20.640Z,3.63
2023-01-01T13:15:52.722Z,3.10
2023-01-01T13:18:34.642Z,3.87
2023-01-01T13:21:22.814Z,3.40
2023-01-01T13:23:52.747Z,3.40
2023-01-01T13:26:40.240Z,8.03
2023-01-01T13:29:33.838Z,11.43
2023-01-01T13:32:09.222Z,5.60
2023-01-01T13:35:05.638Z,4.30
2023-01-01T13:37:44.921Z,4.60
2023-01-01T13:40:53.902Z,9.70
2023-01-01T13:43:31.222Z,4.37
2023-01-01T13:46:13.338Z,4.00
2023-01-01T13:49:25.979Z,7.07
2023-01-01T13:52:25.018Z,7.57
2023-01-01T13:55:47.261Z,3.87
2023-01-01T13:58:40.747Z,7.47
2023-01-01T14:01:26.817Z,7.57
2023-01-01T14:03:57.300Z,7.13
2023-01-01T14:06:30.893Z,4.87
2023-01-01T14:09:03.729Z,5.80
2023-01-01T14:11:31.831Z,9.57
2023-01-01T14:13:59.979Z,8.23
2023-01-01T14:16:30.277Z,7.37
2023-01-01T14:19:03.338Z,11.33
2023-01-01T14:21:34.027Z,10.23
2023-01-01T14:24:04.757Z,2.67
2023-01-01T14:26:34.255Z,7.20
2023-01-01T14:29:07.788Z,3.93
2023-01-01T14:31:43.066Z,11.83
2023-01-01T14:34:16.035Z,8.70
2023-01-01T14:36:52.535Z,12.33
2023-01-01T14:39:27.966Z,11.80
2023-01-01T14:42:00.832Z,6.03
2023-01-01T14:44:33.952Z,8.27
2023-01-01T14:47:04.474Z,13.93
2023-01-01T14:49:35.833Z,12.77
2023-01-01T14:52:08.425Z,5.50
2023-01-01T14:54:39.665Z,6.43
2023-01-01T14:57:15.058Z,6.07
2023-01-01T14:59:48.305Z,5.70
2023-01-01T15:02:22.286Z,7.30
2023-01-01T15:04:51.040Z,4.80
2023-01-01T15:07:23.013Z,8.70
2023-01-01T15:09:54.275Z,5.33
2023-01-01T15:12:23.123Z,7.23
2023-01-01T15:14:54.781Z,6.13
2023-01-01T15:17:26.153Z,2.37
2023-01-01T15:20:06.318Z,5.77
2023-01-01T15:22:36.243Z,4.53
2023-01-01T15:25:04.809Z,3.90
2023-01-01T15:27:35.668Z,4.90
2023-01-01T15:30:13.252Z,4.77
2023-01-01T15:32:43.211Z,10.50
2023-01-01T15:35:27.682Z,5.70
2023-01-01T15:38:01.977Z,10.80
2023-01-01T15:40:35.897Z,6.90
2023-01-01T15:43:15.336Z,6.70
2023-01-01T15:45:51.922Z,10.67
2023-01-01T15:48:24.928Z,7.47
2023-01-01T15:51:16.274Z,4.80
2023-01-01T15:54:04.867Z,4.40
2023-01-01T15:56:34.999Z,6.70
2023-01-01T15:59:09.470Z,4.80
2023-01-01T16:01:40.434Z,6.67
2023-01-01T16:04:12.006Z,5.53
2023-01-01T16:06:45.205Z,5.10
2023-01-01T16:09:14.177Z,10.87
2023-01-01T16:11:43.560Z,7.20
2023-01-01T16:14:12.158Z,6.50
2023-01-01T16:16:44.010Z,11.13
2023-01-01T16:19:17.515Z,6.40
2023-01-01T16:21:46.609Z,6.87
2023-01-01T16:24:18.379Z,4.90
2023-01-01T16:26:47.615Z,6.27
2023-01-01T16:29:16.356Z,6.47
2023-01-01T16:31:45.465Z,9.13
2023-01-01T16:34:15.805Z,7.97
2023-01-01T16:36:44.741Z,8.03
2023-01-01T16:39:13.357Z,4.87
2023-01-01T16:41:42.699Z,9.90
2023-01-01T16:44:14.143Z,4.43
2023-01-01T16:46:42.795Z,4.67
2023-01-01T16:49:10.955Z,5.57
2023-01-01T16:51:43.781Z,6.53
2023-01-01T16:54:12.733Z,4.03
2023-01-01T16:56:40.802Z,9.77
2023-01-01T16:59:08.912Z,6.03
2023-01-01T17:01:37.136Z,6.30
2023-01-01T17:04:05.450Z,7.90
2023-01-01T17:06:33.528Z,6.03
2023-01-01T17:09:02.894Z,3.30
2023-01-01T17:11:30.968Z,12.53
2023-01-01T17:13:59.576Z,10.80
2023-01-01T17:16:32.958Z,6.00
2023-01-01T17:19:15.761Z,24.53
2023-01-01T17:21:45.578Z,13.17
2023-01-01T17:24:15.544Z,8.57
2023-01-01T17:26:43.663Z,8.93
2023-01-01T17:29:12.004Z,12.03
2023-01-01T17:31:40.130Z,10.03
2023-01-01T17:34:10.822Z,10.00
2023-01-01T17:36:42.278Z,11.37
2023-01-01T17:39:12.122Z,9.20
2023-01-01T17:41:41.697Z,13.60
2023-01-01T17:44:11.161Z,11.20
2023-01-01T17:46:39.398Z,8.90
2023-01-01T17:49:08.943Z,9.27
2023-01-01T17:51:37.091Z,15.13
2023-01-01T17:54:07.039Z,7.13
2023-01-01T17:56:35.366Z,20.80
2023-01-01T17:59:04.957Z,11.90
2023-01-01T18:01:35.318Z,9.07
2023-01-01T18:04:05.328Z,9.13
2023-01-01T18:06:40.584Z,10.88
2023-01-01T18:09:13.185Z,10.03
2023-01-01T18:11:42.239Z,11.33
2023-01-01T18:14:13.197Z,10.40
2023-01-01T18:16:44.863Z,10.77
2023-01-01T18:19:13.022Z,9.80
2023-01-01T18:21:43.029Z,13.47
2023-01-01T18:24:13.856Z,10.30
2023-01-01T18:26:42.129Z,15.10
2023-01-01T18:29:11.541Z,11.20
2023-01-01T18:31:39.660Z,10.57
2023-01-01T18:34:08.106Z,9.70
2023-01-01T18:36:36.460Z,11.50
2023-01-01T18:39:10.949Z,7.23
2023-01-01T18:42:07.485Z,9.93
2023-01-01T18:44:36.866Z,7.73
2023-01-01T18:47:13.996Z,8.67
2023-01-01T18:49:47.188Z,8.30
2023-01-01T18:52:23.891Z,12.27
2023-01-01T18:55:13.429Z,11.83
2023-01-01T18:57:42.526Z,14.87
2023-01-01T19:00:19.425Z,9.67
2023-01-01T19:02:56.766Z,14.77
2023-01-01T19:05:27.422Z,12.60
2023-01-01T19:08:02.933Z,17.23
2023-01-01T19:10:36.779Z,16.43
2023-01-01T19:13:20.274Z,21.07
2023-01-01T19:15:51.625Z,14.50
2023-01-01T19:18:22.681Z,20.17
2023-01-01T19:20:51.721Z,14.73
2023-01-01T19:23:23.265Z,15.10
2023-01-01T19:25:52.048Z,18.40
2023-01-01T19:28:37.106Z,20.37
2023-01-01T19:31:08.215Z,16.47
2023-01-01T19:33:36.343Z,15.63
2023-01-01T19:36:05.243Z,19.20
2023-01-01T19:38:33.314Z,14.70
2023-01-01T19:41:01.338Z,15.43
2023-01-01T19:43:30.632Z,16.13
2023-01-01T19:46:00.516Z,15.30
2023-01-01T19:48:31.684Z,18.57
2023-01-01T19:51:01.336Z,18.63
2023-01-01T19:53:30.678Z,10.20
2023-01-01T19:56:00.177Z,11.37
2023-01-01T19:58:30.151Z,14.70
2023-01-01T20:00:59.494Z,10.90
2023-01-01T20:03:58.239Z,11.40
2023-01-01T20:06:20.237Z,13.37
2023-01-01T20:08:48.619Z,11.90
2023-01-01T20:11:16.713Z,11.80
2023-01-01T20:13:44.746Z,14.73
2023-01-01T20:16:12.958Z,14.17
2023-01-01T20:18:41.125Z,10.20
2023-01-01T20:21:27.225Z,12.57
2023-01-01T20:23:57.481Z,15.70
2023-01-01T20:26:26.044Z,14.80
2023-01-01T20:29:17.368Z,16.53
2023-01-01T20:31:45.788Z,11.90
2023-01-01T20:34:13.965Z,15.30
2023-01-01T20:36:59.683Z,21.50
2023-01-01T20:39:29.131Z,12.87
2023-01-01T20:41:57.527Z,9.73
2023-01-01T20:44:25.675Z,8.90
2023-01-01T20:46:54.335Z,10.20
2023-01-01T20:49:23.136Z,11.30
2023-01-01T20:51:53.155Z,6.70
2023-01-01T20:54:22.268Z,14.50
2023-01-01T20:56:51.855Z,8.27
2023-01-01T20:59:37.255Z,7.57
2023-01-01T21:02:06.576Z,14.60
2023-01-01T21:04:38.288Z,6.50
2023-01-01T21:07:07.596Z,5.43
2023-01-01T21:09:35.716Z,5.33
2023-01-01T21:12:06.058Z,8.70
2023-01-01T21:14:34.223Z,5.67
2023-01-01T21:17:08.527Z,3.90
2023-01-01T21:19:37.011Z,8.50
2023-01-01T21:22:11.808Z,11.53
2023-01-01T21:24:40.354Z,5.50
2023-01-01T21:27:14.812Z,3.73
2023-01-01T21:29:46.669Z,11.63
2023-01-01T21:32:20.791Z,10.10
2023-01-01T21:34:50.536Z,5.37
2023-01-01T21:37:37.410Z,10.93
2023-01-01T21:40:30.925Z,7.80
2023-01-01T21:43:11.773Z,7.73
2023-01-01T21:45:41.682Z,6.77
2023-01-01T21:48:16.118Z,9.33
2023-01-01T21:50:46.138Z,7.93
2023-01-01T21:53:17.556Z,9.43
2023-01-01T21:55:54.900Z,7.10
2023-01-01T21:58:44.216Z,9.70
2023-01-01T22:01:22.597Z,5.70
2023-01-01T22:03:58.853Z,5.53
2023-01-01T22:06:38.204Z,6.90
2023-01-01T22:09:17.339Z,7.70
2023-01-01T22:11:45.761Z,7.77
2023-01-01T22:14:19.730Z,8.20
2023-01-01T22:16:49.071Z,9.07
2023-01-01T22:19:19.427Z,10.47
2023-01-01T22:21:48.631Z,6.30
2023-01-01T22:24:32.220Z,7.63
2023-01-01T22:27:26.851Z,6.30
2023-01-01T22:29:57.064Z,8.53
2023-01-01T22:32:27.300Z,11.17
2023-01-01T22:35:00.612Z,11.30
2023-01-01T22:37:36.044Z,11.17
2023-01-01T22:40:05.588Z,7.33
2023-01-01T22:42:38.583Z,7.80
2023-01-01T22:45:15.185Z,7.60
2023-01-01T22:47:44.884Z,7.13
2023-01-01T22:50:18.781Z,15.93
2023-01-01T22:52:46.787Z,10.20
2023-01-01T22:55:14.904Z,7.10
2023-01-01T22:57:42.934Z,8.77
2023-01-01T23:00:15.400Z,9.87
2023-01-01T23:02:43.439Z,7.47
2023-01-01T23:05:12.507Z,7.53
2023-01-01T23:07:42.493Z,11.67
2023-01-01T23:10:13.419Z,11.13
2023-01-01T23:12:41.587Z,5.10
2023-01-01T23:15:27.682Z,11.03
2023-01-01T23:17:57.098Z,8.33
2023-01-01T23:20:25.231Z,5.60
2023-01-01T23:22:56.765Z,6.87
2023-01-01T23:25:25.142Z,4.43
2023-01-01T23:27:53.992Z,5.83
2023-01-01T23:30:22.118Z,10.73
2023-01-01T23:32:50.428Z,11.20
2023-01-01T23:35:20.071Z,7.37
2023-01-01T23:37:48.176Z,14.30
2023-01-01T23:40:16.228Z,5.80
2023-01-01T23:42:44.304Z,8.17
2023-01-01T23:45:12.495Z,7.53
2023-01-01T23:47:41.338Z,9.87
2023-01-01T23:50:10.103Z,5.70
2023-01-01T23:52:39.715Z,9.80
2023-01-01T23:55:08.807Z,8.87
2023-01-01T23:57:36.879Z,9.27
